Time;durP1;ratioP1;P1;durP2;ratioP2;P2;SDS_P1;SDS_P2;PMS_P1;PMS_P2;Temp;Humidity;BMP_temperature;BMP_pressure;BME280_temperature;BME280_humidity;BME280_pressure;Samples;Min_cycle;Max_cycle;Signal;HPM_P1;HPM_P2
2021/12/09 00:03:27;;;;;;;;;;;;;;;-3.17;100.00;94395.63;10405854;28;19924;-77
2021/12/09 00:08:29;;;;;;;;;;;;;;;-3.11;100.00;94402.72;10404359;28;19921;-75
2021/12/09 00:13:29;;;;;;;;;;;;;;;-2.98;100.00;94401.16;10404092;28;19924;-77
2021/12/09 00:18:30;;;;;;;;;;;;;;;-3.00;100.00;94382.97;10404820;28;19913;-75
2021/12/09 00:23:30;;;;;;;;;;;;;;;-2.91;100.00;94391.47;10405545;28;19921;-74
2021/12/09 00:28:30;;;;;;;;;;;;;;;-2.92;100.00;94388.03;10404497;28;19913;-75
2021/12/09 00:33:31;;;;;;;;;;;;;;;-2.83;100.00;94383.41;10405025;28;19913;-73
2021/12/09 00:38:36;;;;;;;;;;;;;;;-2.87;100.00;94370.88;10379162;28;19921;-73
2021/12/09 00:43:37;;;;;;;;;;;;;;;-2.90;100.00;94337.06;10362498;28;19917;-79
2021/12/09 00:48:38;;;;;;;;;;;;;;;-2.83;100.00;94325.56;10361716;28;19928;-75
2021/12/09 00:53:39;;;;;;;;;;;;;;;-2.78;100.00;94327.56;10361861;28;19921;-75
2021/12/09 00:58:40;;;;;;;;;;;;;;;-2.69;100.00;94342.16;10363377;28;19924;-75
2021/12/09 01:03:41;;;;;;;;;;;;;;;-2.67;100.00;94331.44;10361076;28;19924;-77
2021/12/09 01:08:42;;;;;;;;;;;;;;;-2.71;100.00;94341.53;10371107;28;19920;-79
2021/12/09 01:13:42;;;;;;;;;;;;;;;-2.69;100.00;94349.22;10361774;28;19913;-82
2021/12/09 01:18:43;;;;;;;;;;;;;;;-2.63;100.00;94348.44;10360972;28;20276;-79
2021/12/09 01:23:43;;;;;;;;;;;;;;;-2.33;100.00;94351.50;10377103;28;19967;-76
2021/12/09 01:28:52;;;;;;;;;;;;;;;-2.12;100.00;94347.03;10362614;28;19913;-76
2021/12/09 01:33:54;;;;;;;;;;;;;;;-1.98;100.00;94343.38;10360377;28;19913;-74
2021/12/09 01:38:54;;;;;;;;;;;;;;;-1.91;100.00;94333.63;10376184;28;19914;-78
2021/12/09 01:43:54;;;;;;;;;;;;;;;-1.99;100.00;94336.50;10360066;28;19917;-79
2021/12/09 01:48:55;;;;;;;;;;;;;;;-2.02;100.00;94339.53;10376636;28;19926;-79
2021/12/09 01:53:55;;;;;;;;;;;;;;;-1.85;100.00;94337.28;10377177;28;19918;-79
2021/12/09 01:58:59;;;;;;;;;;;;;;;-1.83;100.00;94323.91;10376266;28;19970;-77
2021/12/09 02:04:00;;;;;;;;;;;;;;;-1.73;100.00;94335.63;10359712;28;19993;-74
2021/12/09 02:09:01;;;;;;;;;;;;;;;-1.63;100.00;94345.75;10359615;28;19920;-74
2021/12/09 02:14:02;;;;;;;;;;;;;;;-1.60;100.00;94326.88;10379213;28;19917;-75
2021/12/09 02:19:03;;;;;;;;;;;;;;;-1.60;100.00;94326.88;10400294;28;20318;-74
2021/12/09 02:24:08;;;;;;;;;;;;;;;-1.55;100.00;94315.69;10401017;28;19917;-74
2021/12/09 02:29:09;;;;;;;;;;;;;;;-1.49;100.00;94327.22;10388447;28;20073;-74
2021/12/09 02:34:10;;;;;;;;;;;;;;;-1.48;100.00;94347.31;10359686;28;19917;-78
2021/12/09 02:39:11;;;;;;;;;;;;;;;-1.50;100.00;94349.34;10359005;28;20371;-77
2021/12/09 02:44:13;;;;;;;;;;;;;;;-1.60;100.00;94334.78;10371543;28;20346;-76
2021/12/09 02:49:15;;;;;;;;;;;;;;;-1.58;100.00;94334.56;10378402;28;20289;-73
2021/12/09 02:54:17;;;;;;;;;;;;;;;-1.89;100.00;94323.69;10367435;28;19943;-77
2021/12/09 02:59:17;;;;;;;;;;;;;;;-1.92;100.00;94320.69;10382477;28;19979;-76
2021/12/09 03:04:18;;;;;;;;;;;;;;;-1.84;100.00;94338.91;10383335;28;20379;-79
2021/12/09 03:09:18;;;;;;;;;;;;;;;-1.95;100.00;94339.53;10367234;28;20435;-79
2021/12/09 03:14:18;;;;;;;;;;;;;;;-1.97;100.00;94329.19;10382633;28;19923;-79
2021/12/09 03:19:19;;;;;;;;;;;;;;;-2.00;100.00;94316.44;10366085;28;19925;-75
2021/12/09 03:24:19;;;;;;;;;;;;;;;-1.83;100.00;94310.72;10365786;28;20335;-76
2021/12/09 03:29:21;;;;;;;;;;;;;;;-1.99;100.00;94341.75;10381740;28;20450;-76
2021/12/09 03:34:23;;;;;;;;;;;;;;;-2.01;100.00;94350.88;10364992;28;19941;-74
2021/12/09 03:39:25;;;;;;;;;;;;;;;-2.01;100.00;94354.31;10381520;28;19921;-75
2021/12/09 03:44:36;;;;;;;;;;;;;;;-2.08;100.00;94343.78;10381072;28;19917;-77
2021/12/09 03:49:37;;;;;;;;;;;;;;;-2.13;100.00;94332.25;10365701;28;19921;-75
2021/12/09 03:54:37;;;;;;;;;;;;;;;-2.19;100.00;94314.63;10364346;28;20411;-79
2021/12/09 03:59:38;;;;;;;;;;;;;;;-2.11;100.00;94333.69;10379909;28;19944;-75
2021/12/09 04:04:39;;;;;;;;;;;;;;;-2.17;100.00;94358.16;10363625;28;19918;-78
2021/12/09 04:09:39;;;;;;;;;;;;;;;-2.09;100.00;94357.16;10380023;28;19917;-75
2021/12/09 04:14:39;;;;;;;;;;;;;;;-1.99;100.00;94360.19;10364342;28;19923;-78
2021/12/09 04:19:46;;;;;;;;;;;;;;;-1.96;100.00;94349.22;10364280;28;19996;-75
2021/12/09 04:24:48;;;;;;;;;;;;;;;-2.00;100.00;94355.94;10363586;28;19917;-74
2021/12/09 04:29:48;;;;;;;;;;;;;;;-2.11;100.00;94354.75;10363026;28;19914;-74
2021/12/09 04:34:53;;;;;;;;;;;;;;;-1.93;100.00;94364.63;10362649;28;19921;-77
2021/12/09 04:39:54;;;;;;;;;;;;;;;-1.98;100.00;94363.63;10379457;28;20767;-75
2021/12/09 04:44:54;;;;;;;;;;;;;;;-1.83;100.00;94376.56;10378600;28;19918;-78
2021/12/09 04:49:54;;;;;;;;;;;;;;;-1.96;100.00;94375.56;10374419;28;20391;-76
2021/12/09 04:54:55;;;;;;;;;;;;;;;-2.09;100.00;94372.97;10402844;28;19937;-75
2021/12/09 04:59:55;;;;;;;;;;;;;;;-2.10;100.00;94382.66;10383540;28;19979;-79
2021/12/09 05:04:56;;;;;;;;;;;;;;;-2.18;100.00;94382.88;10403330;28;19918;-78
2021/12/09 05:09:56;;;;;;;;;;;;;;;-2.15;100.00;94381.66;10392074;28;19913;-81
2021/12/09 05:14:56;;;;;;;;;;;;;;;-2.13;100.00;94380.44;10416664;28;20387;-74
2021/12/09 05:19:57;;;;;;;;;;;;;;;-2.09;100.00;94363.22;10403903;28;20007;-77
2021/12/09 05:24:57;;;;;;;;;;;;;;;-2.14;100.00;94385.91;10377836;28;19957;-75
2021/12/09 05:30:05;;;;;;;;;;;;;;;-2.21;100.00;94390.38;10376077;28;20299;-76
2021/12/09 05:35:06;;;;;;;;;;;;;;;-2.34;100.00;94388.56;10356582;28;19921;-75
2021/12/09 05:40:06;;;;;;;;;;;;;;;-2.31;100.00;94383.69;10375404;28;19971;-77
2021/12/09 05:45:07;;;;;;;;;;;;;;;-2.48;100.00;94395.63;10359092;28;19921;-75
2021/12/09 05:50:08;;;;;;;;;;;;;;;-2.55;100.00;94379.00;10355773;28;19922;-76
2021/12/09 05:55:08;;;;;;;;;;;;;;;-2.49;100.00;94397.44;10396147;28;19987;-79
2021/12/09 06:00:09;;;;;;;;;;;;;;;-2.43;100.00;94406.34;10381683;28;19914;-74
2021/12/09 06:05:09;;;;;;;;;;;;;;;-2.51;100.00;94399.47;10374337;28;19921;-77
2021/12/09 06:10:10;;;;;;;;;;;;;;;-2.46;100.00;94404.13;10370982;28;19991;-75
2021/12/09 06:15:10;;;;;;;;;;;;;;;-2.47;100.00;94400.69;10392537;28;19917;-73
2021/12/09 06:20:10;;;;;;;;;;;;;;;-2.34;100.00;94393.81;10374010;28;19917;-78
2021/12/09 06:25:17;;;;;;;;;;;;;;;-2.32;100.00;94404.94;10363640;28;19941;-76
2021/12/09 06:30:19;;;;;;;;;;;;;;;-2.48;100.00;94420.09;10366802;28;19924;-74
2021/12/09 06:35:19;;;;;;;;;;;;;;;-2.29;100.00;94415.88;10367257;28;20292;-74
2021/12/09 06:40:21;;;;;;;;;;;;;;;-2.25;100.00;94406.59;10366716;28;19914;-77
2021/12/09 06:45:22;;;;;;;;;;;;;;;-2.07;100.00;94402.53;10366794;28;19984;-78
2021/12/09 06:50:23;;;;;;;;;;;;;;;-2.04;100.00;94401.31;10365976;28;19961;-78
2021/12/09 06:55:23;;;;;;;;;;;;;;;-2.00;100.00;94405.97;10377414;28;20457;-76
2021/12/09 07:00:25;;;;;;;;;;;;;;;-1.82;100.00;94391.38;10406779;28;19988;-79
2021/12/09 07:05:26;;;;;;;;;;;;;;;-1.59;100.00;94396.19;10407875;28;19944;-74
2021/12/09 07:10:27;;;;;;;;;;;;;;;-1.48;100.00;94390.31;10411375;22;19926;-76
2021/12/09 07:15:27;;;;;;;;;;;;;;;-1.33;100.00;94387.41;10367170;28;19918;-79
2021/12/09 07:20:28;;;;;;;;;;;;;;;-1.17;100.00;94401.97;10365809;28;20252;-78
2021/12/09 07:25:29;;;;;;;;;;;;;;;-0.90;100.00;94389.47;10365307;28;19933;-77
2021/12/09 07:30:30;;;;;;;;;;;;;;;-0.77;100.00;94391.22;10367259;28;20287;-78
2021/12/09 07:35:30;;;;;;;;;;;;;;;-0.66;100.00;94379.19;10364203;28;19921;-73
2021/12/09 07:40:31;;;;;;;;;;;;;;;-0.53;100.00;94365.94;10364374;28;19992;-76
2021/12/09 07:45:32;;;;;;;;;;;;;;;-0.43;100.00;94380.47;10364222;28;19917;-74
2021/12/09 07:50:33;;;;;;;;;;;;;;;-0.38;100.00;94378.84;10364507;28;19920;-77
2021/12/09 07:55:33;;;;;;;;;;;;;;;-0.15;100.00;94369.53;10363926;28;19917;-78
2021/12/09 08:00:34;;;;;;;;;;;;;;;0.10;100.00;94366.88;10363691;28;20466;-75
2021/12/09 08:05:36;;;;;;;;;;;;;;;0.56;100.00;94364.00;10363563;28;19917;-75
2021/12/09 08:10:36;;;;;;;;;;;;;;;0.65;100.00;94366.13;10367308;28;19930;-79
2021/12/09 08:15:39;;;;;;;;;;;;;;;0.36;100.00;94374.78;10364639;28;19914;-75
2021/12/09 08:20:39;;;;;;;;;;;;;;;0.19;100.00;94380.63;10363101;28;19972;-75
2021/12/09 08:25:41;;;;;;;;;;;;;;;0.39;100.00;94380.44;10345842;28;19971;-75
2021/12/09 08:30:41;;;;;;;;;;;;;;;0.49;100.00;94370.16;10362802;28;20394;-75
2021/12/09 08:35:41;;;;;;;;;;;;;;;-0.02;100.00;94395.81;10362160;28;19913;-73
2021/12/09 08:40:43;;;;;;;;;;;;;;;0.60;100.00;94379.22;10362503;28;19917;-75
2021/12/09 08:45:43;;;;;;;;;;;;;;;0.96;100.00;94356.44;10361597;28;19925;-73
2021/12/09 08:50:44;;;;;;;;;;;;;;;1.18;100.00;94354.09;10362810;28;19920;-79
2021/12/09 08:55:45;;;;;;;;;;;;;;;0.76;100.00;94346.06;10362008;28;19917;-74
2021/12/09 09:00:46;;;;;;;;;;;;;;;0.87;100.00;94351.66;10363984;28;19913;-76
2021/12/09 09:05:46;;;;;;;;;;;;;;;1.79;100.00;94340.81;10362771;28;19918;-73
2021/12/09 09:10:46;;;;;;;;;;;;;;;2.21;100.00;94319.53;10402069;28;20389;-78
2021/12/09 09:15:48;;;;;;;;;;;;;;;2.43;100.00;94320.78;10401566;28;19917;-73
2021/12/09 09:20:48;;;;;;;;;;;;;;;2.28;100.00;94295.56;10406709;28;19917;-77
2021/12/09 09:25:49;;;;;;;;;;;;;;;2.68;100.00;94297.44;10401820;28;19924;-78
2021/12/09 09:30:56;;;;;;;;;;;;;;;2.89;100.00;94293.34;10401485;28;19924;-72
2021/12/09 09:35:57;;;;;;;;;;;;;;;2.91;100.00;94299.22;10401360;28;19920;-76
2021/12/09 09:41:10;;;;;;;;;;;;;;;4.01;100.00;94290.22;10400846;28;20310;-77
2021/12/09 09:46:15;;;;;;;;;;;;;;;4.67;100.00;94280.75;10401069;28;19921;-74
2021/12/09 09:51:16;;;;;;;;;;;;;;;4.22;100.00;94282.53;10384447;28;19913;-79
2021/12/09 09:56:19;;;;;;;;;;;;;;;3.49;100.00;94250.56;10402198;28;20024;-77
2021/12/09 10:01:21;;;;;;;;;;;;;;;2.67;100.00;94220.75;10399993;28;19913;-74
2021/12/09 10:06:21;;;;;;;;;;;;;;;3.86;100.00;94215.56;10400091;28;19917;-73
2021/12/09 10:11:21;;;;;;;;;;;;;;;4.59;100.00;94234.06;10400015;28;19936;-73
2021/12/09 10:16:27;;;;;;;;;;;;;;;4.58;100.00;94209.31;10399650;28;19913;-76
2021/12/09 10:21:29;;;;;;;;;;;;;;;4.10;100.00;94240.09;10399748;28;19913;-74
2021/12/09 10:26:29;;;;;;;;;;;;;;;2.70;100.00;94236.19;10399579;28;19939;-74
2021/12/09 10:31:33;;;;;;;;;;;;;;;2.68;100.00;94231.13;10399719;28;19913;-74
2021/12/09 10:36:39;;;;;;;;;;;;;;;2.41;100.00;94216.78;10400775;28;19924;-77
2021/12/09 10:41:40;;;;;;;;;;;;;;;2.24;100.00;94222.03;10399084;28;19956;-77
2021/12/09 10:46:49;;;;;;;;;;;;;;;2.39;100.00;94206.41;10399867;28;20573;-77
2021/12/09 10:51:57;;;;;;;;;;;;;;;2.83;100.00;94214.69;10401160;28;20323;-78
2021/12/09 10:57:17;;;;;;;;;;;;;;;3.89;100.00;94207.09;10399481;28;19940;-77
2021/12/09 11:02:18;;;;;;;;;;;;;;;4.57;100.00;94177.63;10401071;28;19913;-75
2021/12/09 11:07:19;;;;;;;;;;;;;;;6.10;100.00;94171.22;10400232;28;19921;-75
2021/12/09 11:12:28;;;;;;;;;;;;;;;6.01;100.00;94189.53;10404807;28;19925;-74
2021/12/09 11:17:35;;;;;;;;;;;;;;;4.75;100.00;94177.28;10406456;28;19924;-78
2021/12/09 11:22:37;;;;;;;;;;;;;;;4.92;100.00;94185.19;10405740;28;20393;-74
2021/12/09 11:27:39;;;;;;;;;;;;;;;5.87;100.00;94157.16;10406113;28;20477;-77
2021/12/09 11:37:48;;;;;;;;;;;;;;;7.56;100.00;94148.03;10406625;28;20007;-74
2021/12/09 11:42:59;;;;;;;;;;;;;;;8.83;87.93;94156.00;10405562;28;19920;-75
2021/12/09 11:48:01;;;;;;;;;;;;;;;8.68;88.53;94156.09;10381073;28;19953;-77
2021/12/09 11:53:03;;;;;;;;;;;;;;;7.70;94.78;94145.59;10364473;28;20370;-76
2021/12/09 11:58:13;;;;;;;;;;;;;;;7.16;100.00;94150.44;10365572;28;20292;-74
2021/12/09 12:14:45;;;;;;;;;;;;;;;5.20;100.00;94126.56;10366796;28;19917;-74
2021/12/09 12:20:08;;;;;;;;;;;;;;;4.90;100.00;94125.28;10379623;28;19920;-79
2021/12/09 12:25:26;;;;;;;;;;;;;;;4.41;100.00;94126.91;10379686;28;19975;-75
2021/12/09 12:30:54;;;;;;;;;;;;;;;4.04;100.00;94116.88;10392807;28;19983;-73
2021/12/09 12:36:07;;;;;;;;;;;;;;;3.61;100.00;94118.47;10388379;28;19960;-77
2021/12/09 12:41:12;;;;;;;;;;;;;;;3.34;100.00;94105.06;10403813;28;20423;-78
2021/12/09 12:46:41;;;;;;;;;;;;;;;3.36;100.00;94105.63;10406090;28;19983;-74
2021/12/09 12:51:51;;;;;;;;;;;;;;;3.14;100.00;94119.66;10402342;28;20507;-77
2021/12/09 12:56:56;;;;;;;;;;;;;;;2.92;100.00;94103.63;10403718;28;19917;-74
2021/12/09 13:02:00;;;;;;;;;;;;;;;2.82;100.00;94104.28;10386615;28;20268;-78
2021/12/09 13:07:43;;;;;;;;;;;;;;;2.81;100.00;94100.00;10403702;28;19920;-79
2021/12/09 13:12:39;;;;;;;;;;;;;;;2.79;100.00;94101.28;10402612;28;20525;-77
2021/12/09 13:17:43;;;;;;;;;;;;;;;2.84;100.00;94088.91;10401408;28;19921;-78
2021/12/09 13:22:43;;;;;;;;;;;;;;;2.72;100.00;94089.00;10403699;28;19920;-75
2021/12/09 13:48:45;;;;;;;;;;;;;;;2.57;100.00;94062.19;10402046;28;19951;-75
2021/12/09 13:54:18;;;;;;;;;;;;;;;2.48;100.00;94048.50;10385921;28;20399;-79
2021/12/09 13:59:19;;;;;;;;;;;;;;;2.18;100.00;94060.19;10399914;28;20389;-75
2021/12/09 14:04:22;;;;;;;;;;;;;;;2.25;100.00;94059.22;10399944;28;20020;-76
2021/12/09 14:09:24;;;;;;;;;;;;;;;2.27;100.00;94057.97;10400002;28;20400;-77
2021/12/09 14:14:34;;;;;;;;;;;;;;;2.24;100.00;94052.34;10401452;28;20028;-76
2021/12/09 14:25:05;;;;;;;;;;;;;;;2.35;100.00;94056.78;10400329;28;19917;-79
2021/12/09 14:30:10;;;;;;;;;;;;;;;2.49;100.00;94065.25;10399982;28;19913;-73
2021/12/09 14:35:17;;;;;;;;;;;;;;;2.53;100.00;94071.69;10399826;28;19975;-78
2021/12/09 14:40:20;;;;;;;;;;;;;;;2.63;100.00;94074.50;10400143;28;20187;-76
2021/12/09 14:45:22;;;;;;;;;;;;;;;2.69;100.00;94064.78;10402903;28;19921;-78
2021/12/09 14:50:29;;;;;;;;;;;;;;;2.66;100.00;94049.34;10407239;28;19913;-77
2021/12/09 14:55:30;;;;;;;;;;;;;;;2.61;100.00;94052.72;10409511;28;19920;-79
2021/12/09 15:00:33;;;;;;;;;;;;;;;2.69;100.00;94068.25;10407433;28;19917;-73
2021/12/09 15:05:54;;;;;;;;;;;;;;;2.77;100.00;94061.72;10406390;28;19917;-74
2021/12/09 15:10:59;;;;;;;;;;;;;;;2.80;100.00;94047.19;10390556;28;19931;-74
2021/12/09 15:16:01;;;;;;;;;;;;;;;2.85;100.00;94066.63;10405610;28;19966;-75
2021/12/09 15:21:14;;;;;;;;;;;;;;;2.78;100.00;94050.06;10405793;28;19920;-74
2021/12/09 15:26:14;;;;;;;;;;;;;;;2.89;100.00;94053.69;10388923;28;19917;-74
2021/12/09 15:31:19;;;;;;;;;;;;;;;2.81;100.00;94041.63;10405693;28;20401;-78
2021/12/09 15:36:24;;;;;;;;;;;;;;;2.78;100.00;94038.63;10405841;28;19917;-73
2021/12/09 15:41:27;;;;;;;;;;;;;;;2.70;100.00;94053.13;10405440;28;19921;-74
2021/12/09 15:46:27;;;;;;;;;;;;;;;2.79;100.00;94034.94;10405914;28;19921;-80
2021/12/09 15:51:27;;;;;;;;;;;;;;;2.74;100.00;94025.06;10406029;28;19921;-78
2021/12/09 15:56:30;;;;;;;;;;;;;;;2.75;100.00;94037.28;10403708;28;20011;-75
2021/12/09 16:01:31;;;;;;;;;;;;;;;2.85;100.00;94031.34;10404552;28;20333;-76
2021/12/09 16:06:31;;;;;;;;;;;;;;;2.86;100.00;94007.22;10398679;28;19925;-75
2021/12/09 16:11:32;;;;;;;;;;;;;;;2.95;100.00;93974.94;10379563;28;19926;-78
2021/12/09 16:16:34;;;;;;;;;;;;;;;2.83;100.00;94004.22;10403805;28;20395;-78
2021/12/09 16:21:46;;;;;;;;;;;;;;;2.81;100.00;94019.59;10378937;28;20003;-77
2021/12/09 16:26:50;;;;;;;;;;;;;;;2.82;100.00;94040.59;10362891;28;19917;-75
2021/12/09 16:31:50;;;;;;;;;;;;;;;2.90;100.00;94013.63;10378905;28;20007;-77
2021/12/09 16:36:51;;;;;;;;;;;;;;;2.86;100.00;94003.72;10393891;28;19927;-74
2021/12/09 16:41:51;;;;;;;;;;;;;;;2.82;100.00;93984.03;10402758;28;19940;-78
2021/12/09 16:46:52;;;;;;;;;;;;;;;2.85;100.00;93979.06;10400908;28;20509;-74
2021/12/09 16:51:53;;;;;;;;;;;;;;;2.82;100.00;93979.56;10386440;28;19914;-76
2021/12/09 16:56:57;;;;;;;;;;;;;;;2.79;100.00;93988.00;10361727;28;19914;-74
2021/12/09 17:01:59;;;;;;;;;;;;;;;2.82;100.00;93968.13;10392641;28;19928;-74
2021/12/09 17:07:00;;;;;;;;;;;;;;;2.81;100.00;93979.78;10401949;28;19917;-75
2021/12/09 17:12:02;;;;;;;;;;;;;;;2.75;100.00;93976.28;10396336;28;20408;-75
2021/12/09 17:17:03;;;;;;;;;;;;;;;2.61;100.00;93941.31;10405422;28;20292;-74
2021/12/09 17:22:04;;;;;;;;;;;;;;;2.62;100.00;93958.00;10381986;28;20395;-74
2021/12/09 17:27:05;;;;;;;;;;;;;;;2.61;100.00;93964.34;10388435;28;20039;-74
2021/12/09 17:32:05;;;;;;;;;;;;;;;2.68;100.00;93957.03;10402527;28;19913;-74
2021/12/09 17:37:06;;;;;;;;;;;;;;;2.61;100.00;93967.84;10401168;28;20370;-74
2021/12/09 17:42:06;;;;;;;;;;;;;;;2.52;100.00;93951.50;10402265;28;20478;-74
2021/12/09 17:47:08;;;;;;;;;;;;;;;2.44;100.00;93961.72;10398581;28;19967;-73
2021/12/09 17:52:15;;;;;;;;;;;;;;;2.48;100.00;93965.50;10343272;28;19914;-75
2021/12/09 17:57:16;;;;;;;;;;;;;;;2.55;100.00;93974.91;10376021;28;19914;-75
2021/12/09 18:02:16;;;;;;;;;;;;;;;2.30;100.00;93979.78;10361166;28;19914;-75
2021/12/09 18:07:16;;;;;;;;;;;;;;;2.41;100.00;93955.03;10375815;28;19940;-74
2021/12/09 18:12:18;;;;;;;;;;;;;;;2.38;100.00;93931.66;10375218;28;19925;-74
2021/12/09 18:17:21;;;;;;;;;;;;;;;2.37;100.00;93944.13;10376316;28;19918;-75
2021/12/09 18:22:21;;;;;;;;;;;;;;;2.36;100.00;93958.44;10374854;28;20379;-75
2021/12/09 18:27:21;;;;;;;;;;;;;;;2.35;100.00;93969.28;10361408;28;19921;-73
2021/12/09 18:32:22;;;;;;;;;;;;;;;2.13;100.00;93962.00;10359064;28;19917;-76
2021/12/09 18:37:31;;;;;;;;;;;;;;;2.22;100.00;93971.19;10396061;28;19920;-71
2021/12/09 18:42:32;;;;;;;;;;;;;;;2.18;100.00;93958.66;10399834;28;19917;-75
2021/12/09 18:47:33;;;;;;;;;;;;;;;2.14;100.00;93968.13;10399554;28;19924;-74
2021/12/09 18:52:33;;;;;;;;;;;;;;;2.08;100.00;93980.50;10399654;28;19913;-73
2021/12/09 18:57:34;;;;;;;;;;;;;;;2.03;100.00;93983.84;10399404;28;20375;-74
2021/12/09 19:02:34;;;;;;;;;;;;;;;1.83;100.00;93960.44;10399054;28;19924;-74
2021/12/09 19:07:36;;;;;;;;;;;;;;;1.67;100.00;93951.41;10399689;28;19917;-74
2021/12/09 19:12:37;;;;;;;;;;;;;;;1.65;100.00;93982.63;10398864;28;19933;-77
2021/12/09 19:17:44;;;;;;;;;;;;;;;1.65;100.00;94005.69;10398688;28;19913;-78
2021/12/09 19:22:44;;;;;;;;;;;;;;;1.66;100.00;93983.44;10399734;28;19913;-74
2021/12/09 19:27:46;;;;;;;;;;;;;;;1.65;100.00;93936.81;10398786;28;19917;-73
2021/12/09 19:32:46;;;;;;;;;;;;;;;1.54;100.00;93941.91;10405481;28;19913;-73
2021/12/09 19:37:47;;;;;;;;;;;;;;;1.66;100.00;93941.06;10407399;28;19913;-75
2021/12/09 19:42:47;;;;;;;;;;;;;;;1.55;100.00;93940.09;10405711;28;19913;-79
2021/12/09 19:47:48;;;;;;;;;;;;;;;1.38;100.00;93955.88;10383743;28;19929;-76
2021/12/09 19:52:50;;;;;;;;;;;;;;;1.42;100.00;93959.69;10387065;28;19976;-74
2021/12/09 19:57:51;;;;;;;;;;;;;;;1.49;100.00;93954.25;10368351;28;19955;-77
2021/12/09 20:02:52;;;;;;;;;;;;;;;1.56;100.00;93939.03;10365482;28;19913;-80
2021/12/09 20:07:52;;;;;;;;;;;;;;;1.61;100.00;93944.41;10380405;28;19918;-73
2021/12/09 20:12:54;;;;;;;;;;;;;;;1.69;100.00;93925.50;10364943;28;20366;-80
2021/12/09 20:17:54;;;;;;;;;;;;;;;1.39;100.00;93935.53;10380652;28;19917;-75
2021/12/09 20:22:55;;;;;;;;;;;;;;;1.55;100.00;93945.38;10379686;28;19914;-73
2021/12/09 20:27:56;;;;;;;;;;;;;;;1.48;100.00;93913.75;10368347;28;19924;-73
2021/12/09 20:32:58;;;;;;;;;;;;;;;1.38;100.00;93924.13;10364713;28;20359;-74
2021/12/09 20:37:58;;;;;;;;;;;;;;;1.41;100.00;93896.38;10403655;28;19913;-74
2021/12/09 20:42:58;;;;;;;;;;;;;;;1.17;100.00;93929.03;10403065;28;19913;-77
2021/12/09 20:47:59;;;;;;;;;;;;;;;1.38;100.00;93908.22;10404825;28;19917;-80
2021/12/09 20:53:00;;;;;;;;;;;;;;;1.21;100.00;93908.19;10402996;28;19913;-74
2021/12/09 20:58:00;;;;;;;;;;;;;;;1.28;100.00;93903.56;10402729;28;19986;-77
2021/12/09 21:03:01;;;;;;;;;;;;;;;1.38;100.00;93900.28;10402807;28;20394;-74
2021/12/09 21:08:02;;;;;;;;;;;;;;;1.45;100.00;93921.34;10385778;28;19968;-75
2021/12/09 21:13:02;;;;;;;;;;;;;;;1.18;100.00;93929.84;10402354;28;19925;-73
2021/12/09 21:18:06;;;;;;;;;;;;;;;1.33;100.00;93905.50;10378841;28;21557;-81
2021/12/09 21:23:07;;;;;;;;;;;;;;;1.29;100.00;93913.09;10381969;28;20358;-74
2021/12/09 21:28:08;;;;;;;;;;;;;;;1.38;100.00;93913.53;10382258;28;19917;-73
2021/12/09 21:33:09;;;;;;;;;;;;;;;1.28;100.00;93914.13;10386369;28;19917;-74
2021/12/09 21:38:09;;;;;;;;;;;;;;;1.34;100.00;93920.34;10401664;28;20299;-77
2021/12/09 21:43:09;;;;;;;;;;;;;;;1.30;100.00;93911.28;10393632;28;20027;-79
2021/12/09 21:48:10;;;;;;;;;;;;;;;1.30;100.00;93913.94;10381544;28;19925;-78
2021/12/09 21:53:10;;;;;;;;;;;;;;;1.44;100.00;93878.19;10367684;28;19913;-75
2021/12/09 21:58:11;;;;;;;;;;;;;;;1.40;100.00;93898.22;10361038;28;19917;-77
2021/12/09 22:03:11;;;;;;;;;;;;;;;1.31;100.00;93926.09;10361821;28;19920;-74
2021/12/09 22:08:11;;;;;;;;;;;;;;;1.26;100.00;93910.94;10360224;28;19913;-78
2021/12/09 22:13:13;;;;;;;;;;;;;;;1.43;100.00;93926.09;10376608;28;20334;-82
2021/12/09 22:18:15;;;;;;;;;;;;;;;1.69;100.00;93914.13;10361193;28;20403;-73
2021/12/09 22:23:16;;;;;;;;;;;;;;;1.80;100.00;93921.19;10376303;28;20420;-74
2021/12/09 22:28:16;;;;;;;;;;;;;;;1.74;100.00;93922.13;10361734;28;19917;-77
2021/12/09 22:33:17;;;;;;;;;;;;;;;1.60;100.00;93923.47;10376461;28;19913;-77
2021/12/09 22:38:18;;;;;;;;;;;;;;;1.83;100.00;93926.00;10376662;28;20413;-79
2021/12/09 22:43:18;;;;;;;;;;;;;;;1.65;100.00;93908.47;10376280;28;19918;-75
2021/12/09 22:48:20;;;;;;;;;;;;;;;1.63;100.00;93915.88;10376304;28;19964;-78
2021/12/09 22:53:21;;;;;;;;;;;;;;;1.56;100.00;93915.19;10359868;28;19964;-78
2021/12/09 22:58:22;;;;;;;;;;;;;;;1.83;100.00;93904.03;10364174;28;20773;-78
2021/12/09 23:03:24;;;;;;;;;;;;;;;1.84;100.00;93893.19;10376072;28;19926;-79
2021/12/09 23:08:25;;;;;;;;;;;;;;;1.79;100.00;93892.28;10382270;28;20379;-80
2021/12/09 23:13:26;;;;;;;;;;;;;;;1.71;100.00;93872.28;10383786;28;19925;-78
2021/12/09 23:18:28;;;;;;;;;;;;;;;1.75;100.00;93883.22;10383271;28;19913;-75
2021/12/09 23:23:29;;;;;;;;;;;;;;;2.00;100.00;93867.72;10366910;28;19948;-77
2021/12/09 23:28:35;;;;;;;;;;;;;;;2.08;100.00;93833.91;10383423;28;19944;-75
2021/12/09 23:33:36;;;;;;;;;;;;;;;2.08;100.00;93847.97;10382828;28;19914;-79
2021/12/09 23:38:37;;;;;;;;;;;;;;;2.16;100.00;93850.22;10403970;28;19951;-79
2021/12/09 23:43:37;;;;;;;;;;;;;;;2.20;100.00;93861.94;10406947;28;19924;-74
2021/12/09 23:48:38;;;;;;;;;;;;;;;2.21;100.00;93863.53;10406834;28;19924;-77
2021/12/09 23:53:38;;;;;;;;;;;;;;;2.14;100.00;93864.75;10408007;28;19978;-78
2021/12/09 23:58:38;;;;;;;;;;;;;;;2.25;100.00;93852.44;10406537;28;19951;-79
